Terminal Aerodrome Forecast
Issued by NWS

Current Version | Previous Version | Graphics & Text | Print | Product List | Glossary On
Versions: 1 2 3 4 5 6 7 8 9 10 11 12 13 14 15 16 17 18 19 20 21 22 23 24 25 26 27 28
000
FTUS41 KRLX 091100
TAFCKB
TAF
KCKB 091131Z 0912/1012 00000KT 4SM BR SCT024 BKN040 BKN120
     FM091300 24009KT P6SM SCT025 BKN045
     FM100000 VRB03KT P6SM SCT060
     FM100100 00000KT 6SM BR SCT040
     FM100800 00000KT 1 1/2SM BR SCT035
     FM100900 00000KT 1/2SM FG VV001=

USA.gov is the U.S. government's official web portal to all federal, state and local government web resources and services.